This is the latest recevied weather packets stored in our database for station/object S57ZT-10. If no packets are shown the sender has not sent any weather packets the latest 10 day(s).
| Time | Temp. | Humidity | Pressure | Rain* | Wind** | Luminosity | Snow |
|---|---|---|---|---|---|---|---|
| 1777853858 | 18.89° C | 38% | 1018.7 hPa | - | - | - | - |
| 1777852958 | 18.89° C | 38% | 1018.7 hPa | - | - | - | - |
| 1777851193 | 20° C | 36% | 1018.5 hPa | - | - | - | - |
| 1777851159 | 20° C | 36% | 1018.5 hPa | - | - | - | - |
| 1777850273 | 20.56° C | 36% | 1018.5 hPa | - | - | - | - |
| 1777849357 | 20.56° C | 36% | 1018.4 hPa | - | - | - | - |
| 1777848459 | 20.56° C | 36% | 1018.6 hPa | - | - | - | - |
| 1777847557 | 21.11° C | 35% | 1018.5 hPa | - | - | - | - |
| 1777846659 | 21.11° C | 35% | 1018.5 hPa | - | - | - | - |
| 1777845757 | 21.11° C | 35% | 1018.6 hPa | - | - | - | - |
| 1777843957 | 21.67° C | 34% | 1018.6 hPa | - | - | - | - |
| 1777842157 | 22.22° C | 33% | 1018.7 hPa | - | - | - | - |
| 1777841265 | 22.22° C | 33% | 1018.6 hPa | - | - | - | - |
| 1777840403 | 21.67° C | 34% | 1018.9 hPa | - | - | - | - |
| 1777840364 | 21.67° C | 34% | 1018.9 hPa | - | - | - | - |
| 1777839459 | 21.67° C | 35% | 1018.9 hPa | - | - | - | - |
| 1777838564 | 21.67° C | 35% | 1018.9 hPa | - | - | - | - |
| 1777836758 | 22.22° C | 35% | 1018.9 hPa | - | - | - | - |
| 1777834956 | 22.78° C | 33% | 1018.8 hPa | - | - | - | - |
| 1777834104 | 22.78° C | 33% | 1018.6 hPa | - | - | - | - |
| 1777834067 | 22.78° C | 33% | 1018.6 hPa | - | - | - | - |
| 1777833154 | 23.33° C | 32% | 1018.4 hPa | - | - | - | - |
| 1777831353 | 24.44° C | 31% | 1018 hPa | - | - | - | - |
| 1777830463 | 25° C | 31% | 1017.9 hPa | - | - | - | - |
| 1777829556 | 25.56° C | 30% | 1017.9 hPa | - | - | - | - |
* Rain since midnight (hover to see other rain measurements)
** Current wind speed in m/s (hover to see current wind gust speed)